Time;durP1;ratioP1;P1;durP2;ratioP2;P2;SDS_P1;SDS_P2;PMS_P1;PMS_P2;Temp;Humidity;BMP_temperature;BMP_pressure;BME280_temperature;BME280_humidity;BME280_pressure;Samples;Min_cycle;Max_cycle;Signal;HPM_P1;HPM_P2
2022/01/18 00:01:10;;;;;;;8.25;4.95;;;;;;;;;;5017389;28;20029;-77
2022/01/18 00:03:36;;;;;;;9.18;5.10;;;;;;;;;;5050301;28;20099;-76
2022/01/18 00:06:01;;;;;;;8.63;4.53;;;;;;;;;;5017104;28;20033;-76
2022/01/18 00:08:33;;;;;;;8.35;4.80;;;;;;;;;;5050320;28;20446;-77
2022/01/18 00:11:01;;;;;;;7.30;4.72;;;;;;;;;;5065532;28;20111;-77
2022/01/18 00:18:20;;;;;;;9.10;4.82;;;;;;;;;;5017219;28;20033;-77
2022/01/18 00:23:14;;;;;;;8.98;4.47;;;;;;;;;;5066611;28;20091;-77
2022/01/18 00:25:42;;;;;;;7.30;4.40;;;;;;;;;;5033808;28;20037;-77
2022/01/18 00:28:08;;;;;;;7.55;5.15;;;;;;;;;;5049374;28;20491;-77
2022/01/18 00:33:24;;;;;;;10.18;4.82;;;;;;;;;;5047348;28;20044;-77
2022/01/18 00:36:00;;;;;;;8.57;4.55;;;;;;;;;;5017631;28;20491;-77
2022/01/18 00:38:43;;;;;;;10.18;3.88;;;;;;;;;;5032375;28;20036;-77
2022/01/18 00:41:09;;;;;;;7.82;4.03;;;;;;;;;;5005583;28;20025;-77
2022/01/18 00:43:35;;;;;;;8.73;4.82;;;;;;;;;;5016591;28;20033;-77
2022/01/18 00:46:00;;;;;;;9.13;3.80;;;;;;;;;;5016626;28;20042;-77
2022/01/18 00:48:25;;;;;;;8.73;4.15;;;;;;;;;;5020684;28;20041;-77
2022/01/18 00:50:52;;;;;;;7.25;3.90;;;;;;;;;;5065714;28;20072;-77
2022/01/18 00:53:19;;;;;;;7.60;4.40;;;;;;;;;;4999613;28;20500;-77
2022/01/18 00:55:53;;;;;;;5.97;3.45;;;;;;;;;;5017038;28;20030;-77
2022/01/18 00:58:18;;;;;;;7.53;3.70;;;;;;;;;;5048111;28;20036;-77
2022/01/18 01:00:44;;;;;;;7.00;4.47;;;;;;;;;;5016164;28;20388;-77
2022/01/18 01:03:09;;;;;;;8.93;4.35;;;;;;;;;;5032277;28;20042;-77
2022/01/18 01:05:35;;;;;;;5.35;3.13;;;;;;;;;;5032757;28;20033;-77
2022/01/18 01:08:01;;;;;;;6.50;3.60;;;;;;;;;;5015808;28;20038;-77
2022/01/18 01:10:27;;;;;;;9.57;4.40;;;;;;;;;;5032666;28;20190;-77
2022/01/18 01:12:52;;;;;;;7.47;3.63;;;;;;;;;;4999487;28;20041;-77
2022/01/18 01:15:20;;;;;;;9.38;3.88;;;;;;;;;;5032589;28;20084;-77
2022/01/18 01:17:53;;;;;;;6.57;3.65;;;;;;;;;;5016344;28;20067;-77
2022/01/18 01:34:34;;;;;;;6.88;3.90;;;;;;;;;;5016898;28;20029;-77
2022/01/18 01:42:27;;;;;;;8.60;4.53;;;;;;;;;;5046257;28;20373;-77
2022/01/18 01:44:55;;;;;;;8.48;3.70;;;;;;;;;;5028103;28;20157;-77
2022/01/18 01:47:22;;;;;;;5.30;3.03;;;;;;;;;;5022915;28;20028;-77
2022/01/18 01:49:50;;;;;;;8.13;3.72;;;;;;;;;;5031648;28;20033;-77
2022/01/18 01:52:16;;;;;;;6.57;3.65;;;;;;;;;;4999144;28;20150;-77
2022/01/18 01:54:42;;;;;;;7.57;3.90;;;;;;;;;;5032038;28;20025;-77
2022/01/18 01:57:07;;;;;;;6.93;3.72;;;;;;;;;;5015028;28;20060;-77
2022/01/18 01:59:33;;;;;;;6.15;3.22;;;;;;;;;;5015487;28;20029;-77
2022/01/18 02:01:58;;;;;;;7.63;3.80;;;;;;;;;;5014812;28;20167;-77
2022/01/18 02:04:24;;;;;;;8.35;3.65;;;;;;;;;;5015128;28;20076;-77
2022/01/18 02:06:49;;;;;;;7.45;4.07;;;;;;;;;;5030375;28;20475;-77
2022/01/18 02:09:15;;;;;;;6.35;3.90;;;;;;;;;;5031248;28;20026;-77
2022/01/18 02:11:42;;;;;;;7.10;3.22;;;;;;;;;;5031341;28;20037;-77
2022/01/18 02:14:13;;;;;;;7.65;4.68;;;;;;;;;;5015012;28;20123;-77
2022/01/18 02:22:06;;;;;;;6.65;3.47;;;;;;;;;;5031585;28;20080;-77
2022/01/18 02:24:32;;;;;;;7.82;4.28;;;;;;;;;;5014911;28;20041;-77
2022/01/18 02:26:57;;;;;;;9.32;4.20;;;;;;;;;;4994441;28;20041;-77
2022/01/18 02:29:23;;;;;;;9.07;4.10;;;;;;;;;;4995373;28;20431;-77
2022/01/18 02:31:48;;;;;;;9.73;3.88;;;;;;;;;;4995153;28;20022;-77
2022/01/18 02:34:18;;;;;;;9.88;4.10;;;;;;;;;;5030565;28;20040;-77
2022/01/18 02:36:43;;;;;;;8.75;4.28;;;;;;;;;;4998527;28;20025;-77
2022/01/18 02:39:09;;;;;;;8.05;4.40;;;;;;;;;;5014756;28;20083;-77
2022/01/18 02:41:34;;;;;;;6.88;4.53;;;;;;;;;;5014622;28;20098;-77
2022/01/18 02:44:18;;;;;;;8.88;3.88;;;;;;;;;;5027595;28;20034;-77
2022/01/18 02:46:44;;;;;;;9.02;4.22;;;;;;;;;;5010873;28;20037;-77
2022/01/18 02:49:09;;;;;;;7.50;3.97;;;;;;;;;;5033935;28;20473;-77
2022/01/18 02:51:35;;;;;;;7.85;3.97;;;;;;;;;;5050872;28;20044;-77
2022/01/18 02:54:02;;;;;;;8.52;3.97;;;;;;;;;;5031705;28;20083;-77
2022/01/18 02:56:30;;;;;;;11.05;4.85;;;;;;;;;;5014283;28;20053;-77
2022/01/18 02:59:06;;;;;;;7.32;3.92;;;;;;;;;;5014058;28;20510;-77
2022/01/18 03:04:15;;;;;;;8.38;3.92;;;;;;;;;;5030533;28;20029;-77
2022/01/18 03:06:40;;;;;;;9.50;4.60;;;;;;;;;;5014273;28;20098;-77
2022/01/18 03:09:06;;;;;;;9.27;4.70;;;;;;;;;;5010225;28;20108;-77
2022/01/18 03:11:31;;;;;;;12.80;5.95;;;;;;;;;;5001705;28;20045;-77
2022/01/18 03:13:57;;;;;;;11.55;4.47;;;;;;;;;;5013936;28;20050;-77
2022/01/18 03:16:22;;;;;;;6.78;3.55;;;;;;;;;;5013536;28;20435;-77
2022/01/18 03:18:48;;;;;;;8.20;4.30;;;;;;;;;;5013540;28;20507;-77
2022/01/18 03:21:13;;;;;;;8.98;4.50;;;;;;;;;;5030162;28;20041;-77
2022/01/18 03:23:39;;;;;;;10.40;5.07;;;;;;;;;;5013579;28;20112;-77
2022/01/18 03:26:14;;;;;;;8.32;3.90;;;;;;;;;;5014082;28;20080;-77
2022/01/18 03:28:40;;;;;;;8.63;4.00;;;;;;;;;;5030499;28;20109;-77
2022/01/18 03:31:05;;;;;;;9.00;4.68;;;;;;;;;;5030630;28;20030;-77
2022/01/18 03:33:31;;;;;;;7.55;3.85;;;;;;;;;;5029859;28;20083;-77
2022/01/18 03:35:57;;;;;;;8.82;3.70;;;;;;;;;;5010899;28;20068;-77
2022/01/18 03:38:29;;;;;;;6.90;3.30;;;;;;;;;;4993761;28;20570;-77
2022/01/18 03:40:55;;;;;;;7.13;3.80;;;;;;;;;;5029837;28;20029;-77
2022/01/18 03:43:20;;;;;;;7.60;3.85;;;;;;;;;;5030253;28;20391;-77
2022/01/18 03:45:46;;;;;;;7.45;3.78;;;;;;;;;;5030525;28;20025;-77
2022/01/18 03:48:30;;;;;;;7.20;3.65;;;;;;;;;;5046305;28;20097;-77
2022/01/18 03:50:56;;;;;;;8.98;3.95;;;;;;;;;;5015030;28;20033;-77
2022/01/18 03:53:22;;;;;;;7.18;3.38;;;;;;;;;;4997197;28;20046;-77
2022/01/18 03:55:48;;;;;;;9.55;4.40;;;;;;;;;;5014153;28;20026;-77
2022/01/18 03:58:13;;;;;;;8.15;4.07;;;;;;;;;;5029923;28;20099;-77
2022/01/18 04:00:39;;;;;;;9.02;3.55;;;;;;;;;;5013590;28;20075;-77
2022/01/18 04:03:04;;;;;;;10.75;4.78;;;;;;;;;;4997061;28;20025;-76
2022/01/18 04:05:30;;;;;;;7.45;3.83;;;;;;;;;;5030715;28;20064;-77
2022/01/18 04:07:55;;;;;;;8.93;4.40;;;;;;;;;;5012973;28;20057;-77
2022/01/18 04:10:21;;;;;;;9.73;4.55;;;;;;;;;;4997376;28;20026;-77
2022/01/18 04:12:47;;;;;;;10.68;4.13;;;;;;;;;;5013896;28;20171;-77
2022/01/18 04:15:13;;;;;;;7.43;4.00;;;;;;;;;;4996730;28;20059;-76
2022/01/18 04:28:32;;;;;;;9.73;4.00;;;;;;;;;;5030310;28;20128;-77
2022/01/18 04:30:57;;;;;;;10.40;4.43;;;;;;;;;;5033050;28;20113;-77
2022/01/18 04:33:23;;;;;;;7.00;4.53;;;;;;;;;;5016306;28;20403;-77
2022/01/18 04:35:48;;;;;;;7.85;3.88;;;;;;;;;;5033577;28;20025;-77
2022/01/18 04:38:14;;;;;;;12.90;4.80;;;;;;;;;;5016754;28;20034;-77
2022/01/18 04:40:43;;;;;;;11.80;4.18;;;;;;;;;;5000426;28;20025;-77
2022/01/18 04:48:35;;;;;;;10.48;4.47;;;;;;;;;;5024884;28;20029;-77
2022/01/18 04:51:07;;;;;;;7.72;3.75;;;;;;;;;;5032305;28;20040;-77
2022/01/18 04:53:34;;;;;;;9.85;5.13;;;;;;;;;;5066324;28;20037;-77
2022/01/18 04:56:03;;;;;;;9.65;4.10;;;;;;;;;;5016696;28;20029;-77
2022/01/18 04:58:28;;;;;;;8.63;4.47;;;;;;;;;;5032685;28;20041;-77
2022/01/18 05:00:55;;;;;;;8.77;4.20;;;;;;;;;;5049236;28;20376;-77
2022/01/18 05:03:20;;;;;;;8.55;4.47;;;;;;;;;;5048900;28;20119;-77
2022/01/18 05:05:48;;;;;;;8.32;3.88;;;;;;;;;;5032668;28;20025;-77
2022/01/18 05:08:14;;;;;;;6.15;3.67;;;;;;;;;;5032275;28;20037;-77
2022/01/18 05:10:40;;;;;;;8.30;4.25;;;;;;;;;;4999214;28;20052;-77
2022/01/18 05:13:22;;;;;;;10.45;4.78;;;;;;;;;;4999761;28;20026;-77
2022/01/18 05:15:56;;;;;;;8.50;4.10;;;;;;;;;;5018129;28;20037;-77
2022/01/18 05:21:17;;;;;;;7.55;4.43;;;;;;;;;;5031994;28;20036;-77
2022/01/18 05:23:43;;;;;;;9.63;4.57;;;;;;;;;;5032608;28;20075;-77
2022/01/18 05:26:08;;;;;;;6.95;4.13;;;;;;;;;;5032411;28;20037;-77
2022/01/18 05:28:34;;;;;;;6.72;3.67;;;;;;;;;;5032130;28;20100;-77
2022/01/18 05:30:59;;;;;;;9.43;4.10;;;;;;;;;;5048265;28;20075;-77
2022/01/18 05:33:25;;;;;;;7.88;4.13;;;;;;;;;;5013794;28;20408;-77
2022/01/18 05:35:50;;;;;;;7.90;4.47;;;;;;;;;;4997763;28;20029;-77
2022/01/18 05:38:16;;;;;;;9.75;4.75;;;;;;;;;;5030205;28;20480;-77
2022/01/18 05:40:41;;;;;;;10.85;4.50;;;;;;;;;;5010036;28;20037;-77
2022/01/18 05:43:07;;;;;;;8.43;3.90;;;;;;;;;;4994562;28;20045;-77
2022/01/18 05:45:32;;;;;;;9.00;3.95;;;;;;;;;;4977959;28;20029;-77
2022/01/18 05:47:58;;;;;;;7.88;4.10;;;;;;;;;;5016745;28;20059;-77
2022/01/18 05:50:23;;;;;;;8.48;4.15;;;;;;;;;;5051235;28;20537;-77
2022/01/18 05:52:49;;;;;;;6.90;3.90;;;;;;;;;;5041088;28;20033;-77
2022/01/18 05:55:14;;;;;;;8.18;4.72;;;;;;;;;;4998112;28;20391;-77
2022/01/18 05:57:39;;;;;;;7.35;3.83;;;;;;;;;;5014038;28;20033;-77
2022/01/18 06:00:08;;;;;;;7.32;4.65;;;;;;;;;;5013999;28;20094;-77
2022/01/18 06:02:44;;;;;;;7.43;3.80;;;;;;;;;;5030288;28;20383;-77
2022/01/18 06:07:54;;;;;;;8.68;4.55;;;;;;;;;;5045342;28;20068;-76
2022/01/18 06:10:19;;;;;;;11.25;5.68;;;;;;;;;;5015189;28;20079;-76
2022/01/18 06:12:45;;;;;;;7.70;3.88;;;;;;;;;;4998516;28;20140;-77
2022/01/18 06:15:11;;;;;;;8.32;4.18;;;;;;;;;;4998539;28;20061;-76
2022/01/18 06:17:36;;;;;;;7.68;3.85;;;;;;;;;;4998335;28;20025;-76
2022/01/18 06:20:01;;;;;;;6.55;4.50;;;;;;;;;;5014937;28;20048;-76
2022/01/18 06:22:27;;;;;;;8.48;4.63;;;;;;;;;;4978220;28;20033;-76
2022/01/18 06:24:52;;;;;;;9.88;4.00;;;;;;;;;;5031267;28;20045;-77
2022/01/18 06:27:18;;;;;;;8.40;4.50;;;;;;;;;;5011805;28;20033;-76
2022/01/18 06:29:43;;;;;;;7.82;4.18;;;;;;;;;;5014339;28;20037;-77
2022/01/18 06:32:09;;;;;;;11.35;4.95;;;;;;;;;;5012595;28;20381;-76
2022/01/18 06:34:34;;;;;;;11.15;4.57;;;;;;;;;;5003490;28;20044;-76
2022/01/18 06:37:00;;;;;;;8.07;4.85;;;;;;;;;;4982562;28;20534;-76
2022/01/18 06:39:25;;;;;;;10.82;5.43;;;;;;;;;;5014780;28;20084;-77
2022/01/18 06:41:51;;;;;;;10.02;4.75;;;;;;;;;;5014933;28;20040;-77
2022/01/18 06:44:17;;;;;;;9.75;4.55;;;;;;;;;;5014711;28;20061;-76
2022/01/18 06:46:42;;;;;;;9.90;5.45;;;;;;;;;;4998184;28;20500;-76
2022/01/18 06:49:07;;;;;;;9.18;4.57;;;;;;;;;;5030248;28;20037;-76
2022/01/18 06:51:34;;;;;;;9.35;5.85;;;;;;;;;;5023795;28;20042;-79
2022/01/18 06:53:59;;;;;;;10.88;5.47;;;;;;;;;;5023825;28;20038;-76
2022/01/18 06:56:26;;;;;;;11.88;5.05;;;;;;;;;;5008895;28;20066;-76
2022/01/18 06:58:53;;;;;;;12.30;5.78;;;;;;;;;;5031746;28;20042;-76
2022/01/18 07:01:18;;;;;;;13.10;5.03;;;;;;;;;;5028823;28;20025;-76
2022/01/18 07:03:44;;;;;;;13.60;5.78;;;;;;;;;;5030444;28;20435;-76
2022/01/18 07:06:09;;;;;;;10.23;4.85;;;;;;;;;;4981289;28;20068;-76
2022/01/18 07:08:34;;;;;;;16.00;5.45;;;;;;;;;;5045774;28;20080;-77
2022/01/18 07:11:00;;;;;;;11.95;4.82;;;;;;;;;;5046089;28;20407;-76
2022/01/18 07:13:25;;;;;;;13.35;6.25;;;;;;;;;;5013904;28;20080;-77
2022/01/18 07:15:51;;;;;;;16.30;6.82;;;;;;;;;;5013682;28;20059;-76
2022/01/18 07:18:16;;;;;;;12.55;4.53;;;;;;;;;;5014770;28;20045;-76
2022/01/18 07:20:42;;;;;;;13.73;6.18;;;;;;;;;;5027137;28;20037;-76
2022/01/18 07:23:11;;;;;;;14.38;6.18;;;;;;;;;;5010821;28;20395;-76
2022/01/18 07:25:46;;;;;;;15.07;6.00;;;;;;;;;;5010815;28;20034;-76
2022/01/18 07:28:12;;;;;;;12.38;5.70;;;;;;;;;;5010521;28;20044;-76
2022/01/18 07:30:38;;;;;;;17.40;6.22;;;;;;;;;;4994388;28;20030;-76
2022/01/18 07:33:04;;;;;;;15.70;5.38;;;;;;;;;;5039225;28;20039;-76
2022/01/18 07:35:32;;;;;;;13.32;5.20;;;;;;;;;;4994406;28;20034;-76
2022/01/18 07:37:59;;;;;;;15.75;5.82;;;;;;;;;;4994537;28;20042;-76
2022/01/18 07:40:24;;;;;;;16.17;6.60;;;;;;;;;;4994292;28;20443;-76
2022/01/18 07:42:50;;;;;;;11.35;5.68;;;;;;;;;;5010759;28;20069;-76
2022/01/18 07:45:15;;;;;;;11.57;5.30;;;;;;;;;;4994360;28;20044;-76
2022/01/18 07:47:41;;;;;;;9.70;5.18;;;;;;;;;;4993927;28;20377;-76
2022/01/18 07:50:07;;;;;;;11.85;5.25;;;;;;;;;;5010860;28;20110;-76
2022/01/18 07:52:35;;;;;;;8.80;4.97;;;;;;;;;;4977970;28;20064;-76
2022/01/18 07:55:01;;;;;;;10.00;5.22;;;;;;;;;;4979071;28;20030;-76
2022/01/18 07:57:26;;;;;;;10.07;5.03;;;;;;;;;;4994048;28;20038;-76
2022/01/18 07:59:52;;;;;;;9.20;5.30;;;;;;;;;;4978183;28;20527;-76
2022/01/18 08:02:17;;;;;;;9.63;4.90;;;;;;;;;;4994174;28;20402;-76
2022/01/18 08:04:43;;;;;;;12.02;5.78;;;;;;;;;;4981959;28;20022;-74
2022/01/18 08:07:08;;;;;;;9.45;5.03;;;;;;;;;;4981367;28;20038;-75
2022/01/18 08:09:34;;;;;;;8.07;4.47;;;;;;;;;;4982040;28;20435;-75
2022/01/18 08:11:59;;;;;;;13.27;6.68;;;;;;;;;;4997773;28;20061;-75
2022/01/18 08:14:29;;;;;;;9.13;5.13;;;;;;;;;;4997579;28;20041;-75
2022/01/18 08:17:00;;;;;;;11.00;6.25;;;;;;;;;;4996935;28;20049;-75
2022/01/18 08:19:30;;;;;;;11.77;6.43;;;;;;;;;;4998571;28;20034;-75
2022/01/18 08:21:55;;;;;;;10.50;5.88;;;;;;;;;;4997538;28;20034;-75
2022/01/18 08:24:21;;;;;;;9.98;4.93;;;;;;;;;;4964961;28;20030;-74
2022/01/18 08:26:46;;;;;;;9.20;5.32;;;;;;;;;;4980919;28;20887;-75
2022/01/18 08:29:12;;;;;;;8.65;5.10;;;;;;;;;;4980582;28;20120;-75
2022/01/18 08:31:39;;;;;;;9.13;5.25;;;;;;;;;;4997951;28;20380;-75
2022/01/18 08:34:04;;;;;;;10.32;5.47;;;;;;;;;;5013247;28;20145;-75
2022/01/18 08:36:30;;;;;;;8.98;5.20;;;;;;;;;;4980623;28;20484;-75
2022/01/18 08:38:56;;;;;;;9.38;5.63;;;;;;;;;;4980557;28;20107;-75
2022/01/18 08:41:21;;;;;;;11.52;5.15;;;;;;;;;;4997304;28;20102;-75
2022/01/18 08:43:47;;;;;;;10.05;4.65;;;;;;;;;;4981149;28;20042;-75
2022/01/18 08:46:13;;;;;;;8.60;4.50;;;;;;;;;;4997327;28;20034;-75
2022/01/18 08:48:38;;;;;;;8.55;4.93;;;;;;;;;;4980882;28;20065;-75
2022/01/18 08:51:04;;;;;;;8.63;5.13;;;;;;;;;;5013054;28;20023;-75
2022/01/18 08:53:29;;;;;;;9.18;4.72;;;;;;;;;;4996824;28;20040;-75
2022/01/18 08:55:55;;;;;;;8.48;4.90;;;;;;;;;;4980757;28;20029;-75
2022/01/18 08:58:23;;;;;;;9.35;4.78;;;;;;;;;;4980479;28;20029;-75
2022/01/18 09:00:49;;;;;;;8.98;5.10;;;;;;;;;;4997332;28;20026;-75
2022/01/18 09:03:14;;;;;;;8.80;4.65;;;;;;;;;;4996729;28;20034;-75
2022/01/18 09:05:40;;;;;;;7.63;5.35;;;;;;;;;;4996613;28;20034;-75
2022/01/18 09:08:07;;;;;;;7.00;4.53;;;;;;;;;;4980623;28;20061;-75
2022/01/18 09:10:34;;;;;;;10.68;4.70;;;;;;;;;;4997432;28;20105;-75
2022/01/18 09:12:59;;;;;;;8.30;5.28;;;;;;;;;;4980584;28;20038;-75
2022/01/18 09:15:25;;;;;;;6.75;4.55;;;;;;;;;;5012514;28;20395;-75
2022/01/18 09:17:51;;;;;;;7.43;4.43;;;;;;;;;;4996331;28;20115;-75
2022/01/18 09:20:17;;;;;;;6.13;4.30;;;;;;;;;;4996972;28;20068;-75
2022/01/18 09:22:43;;;;;;;8.98;5.18;;;;;;;;;;4996202;28;20045;-75
2022/01/18 09:25:15;;;;;;;6.68;4.35;;;;;;;;;;4996481;28;20037;-75
2022/01/18 09:27:40;;;;;;;8.43;4.53;;;;;;;;;;4997405;28;20108;-75
2022/01/18 09:30:06;;;;;;;6.22;4.13;;;;;;;;;;4996332;28;20049;-75
2022/01/18 09:32:32;;;;;;;6.97;4.45;;;;;;;;;;4987623;28;20491;-75
2022/01/18 09:34:57;;;;;;;8.68;4.45;;;;;;;;;;4995661;28;20042;-75
2022/01/18 09:37:23;;;;;;;8.57;5.25;;;;;;;;;;4996066;28;20042;-75
2022/01/18 09:39:48;;;;;;;8.98;4.63;;;;;;;;;;4979999;28;20061;-75
2022/01/18 09:42:14;;;;;;;7.85;4.10;;;;;;;;;;4996285;28;20400;-75
2022/01/18 09:44:39;;;;;;;8.43;4.88;;;;;;;;;;4996076;28;20038;-75
2022/01/18 09:47:05;;;;;;;5.53;3.90;;;;;;;;;;5011926;28;20033;-75
2022/01/18 09:49:32;;;;;;;6.80;4.95;;;;;;;;;;4979397;28;20443;-75
2022/01/18 09:51:57;;;;;;;7.80;4.65;;;;;;;;;;4979982;28;20076;-75
2022/01/18 09:54:23;;;;;;;7.57;4.38;;;;;;;;;;4995911;28;20034;-75
2022/01/18 09:56:48;;;;;;;8.02;4.35;;;;;;;;;;4979527;28;20369;-75
2022/01/18 09:59:14;;;;;;;9.15;4.30;;;;;;;;;;4995935;28;20030;-75
2022/01/18 10:01:40;;;;;;;9.95;5.22;;;;;;;;;;4979903;28;20037;-75
2022/01/18 10:04:20;;;;;;;9.35;4.68;;;;;;;;;;4979004;28;20022;-75
2022/01/18 10:06:54;;;;;;;8.07;4.13;;;;;;;;;;4995931;28;20117;-75
2022/01/18 10:09:20;;;;;;;8.82;4.47;;;;;;;;;;4979615;28;20113;-75
2022/01/18 10:12:05;;;;;;;9.63;5.10;;;;;;;;;;4995659;28;20049;-74
2022/01/18 10:14:31;;;;;;;9.00;5.90;;;;;;;;;;5011961;28;20038;-75
2022/01/18 10:16:56;;;;;;;7.20;4.32;;;;;;;;;;4995132;28;20094;-75
2022/01/18 10:19:38;;;;;;;8.55;4.80;;;;;;;;;;4995315;28;20042;-75
2022/01/18 10:22:28;;;;;;;8.80;5.07;;;;;;;;;;4980291;28;20533;-75
2022/01/18 10:24:53;;;;;;;7.72;4.57;;;;;;;;;;4980903;28;20036;-75
2022/01/18 10:27:19;;;;;;;8.88;4.75;;;;;;;;;;4994252;28;20030;-75
2022/01/18 10:29:49;;;;;;;9.45;5.20;;;;;;;;;;4979037;28;20053;-75
2022/01/18 10:32:19;;;;;;;10.80;5.82;;;;;;;;;;5000514;28;20094;-75
2022/01/18 10:37:18;;;;;;;9.45;5.28;;;;;;;;;;4995952;28;20617;-75
2022/01/18 10:39:49;;;;;;;7.25;4.45;;;;;;;;;;5011727;28;20053;-74
2022/01/18 10:42:17;;;;;;;8.02;4.85;;;;;;;;;;4962936;28;20084;-75
2022/01/18 10:44:47;;;;;;;8.65;5.07;;;;;;;;;;5012573;28;20045;-74
2022/01/18 10:47:13;;;;;;;7.50;4.35;;;;;;;;;;4978511;28;20508;-75
2022/01/18 10:49:40;;;;;;;8.18;4.47;;;;;;;;;;4994872;28;20064;-75
2022/01/18 10:52:11;;;;;;;8.20;4.95;;;;;;;;;;4978926;28;20041;-74
2022/01/18 10:54:37;;;;;;;9.10;5.32;;;;;;;;;;4994911;28;20026;-75
2022/01/18 10:57:04;;;;;;;8.00;4.90;;;;;;;;;;4994660;28;20061;-74
2022/01/18 10:59:29;;;;;;;8.20;4.70;;;;;;;;;;4979126;28;20544;-75
2022/01/18 11:02:10;;;;;;;8.05;4.63;;;;;;;;;;4994509;28;20033;-74
2022/01/18 11:04:36;;;;;;;9.40;5.35;;;;;;;;;;4978533;28;20506;-75
2022/01/18 11:07:03;;;;;;;10.05;5.63;;;;;;;;;;4979117;28;20038;-75
2022/01/18 11:09:29;;;;;;;6.80;4.68;;;;;;;;;;4979063;28;20498;-75
2022/01/18 11:11:55;;;;;;;7.68;4.60;;;;;;;;;;4994511;28;20042;-75
2022/01/18 11:14:22;;;;;;;8.30;5.03;;;;;;;;;;4994502;28;20038;-74
2022/01/18 11:16:48;;;;;;;7.70;4.60;;;;;;;;;;4993997;28;20587;-74
2022/01/18 11:21:48;;;;;;;9.55;4.95;;;;;;;;;;4994798;28;20104;-75
2022/01/18 11:24:15;;;;;;;7.22;4.72;;;;;;;;;;4994600;28;20546;-75
2022/01/18 11:26:42;;;;;;;10.35;4.80;;;;;;;;;;4994312;28;20038;-74
2022/01/18 11:29:08;;;;;;;8.77;5.03;;;;;;;;;;5010777;28;20037;-75
2022/01/18 11:31:34;;;;;;;9.20;4.97;;;;;;;;;;4993974;28;20109;-74
2022/01/18 11:33:59;;;;;;;7.90;4.90;;;;;;;;;;4997812;28;20163;-74
2022/01/18 11:36:27;;;;;;;8.70;4.63;;;;;;;;;;4981549;28;20044;-75
2022/01/18 11:38:54;;;;;;;9.90;5.18;;;;;;;;;;5000421;28;20037;-75
2022/01/18 11:41:34;;;;;;;9.65;4.80;;;;;;;;;;5018532;28;20030;-75
2022/01/18 11:44:20;;;;;;;6.97;4.10;;;;;;;;;;4987123;28;20557;-75
2022/01/18 11:46:50;;;;;;;9.63;4.80;;;;;;;;;;5002555;28;20108;-75
2022/01/18 11:49:23;;;;;;;7.47;4.53;;;;;;;;;;5017975;28;20033;-75
2022/01/18 11:51:49;;;;;;;8.68;4.93;;;;;;;;;;5001698;28;20040;-75
2022/01/18 11:54:37;;;;;;;8.00;4.93;;;;;;;;;;5035390;28;20434;-75
2022/01/18 11:57:27;;;;;;;7.28;4.28;;;;;;;;;;5034055;28;20040;-74
2022/01/18 11:59:53;;;;;;;7.22;4.65;;;;;;;;;;5033944;28;20795;-75
2022/01/18 12:02:40;;;;;;;8.68;4.63;;;;;;;;;;5001066;28;20136;-75
2022/01/18 12:05:14;;;;;;;8.15;4.18;;;;;;;;;;5018085;28;20029;-75
2022/01/18 12:07:41;;;;;;;7.57;4.50;;;;;;;;;;5018321;28;20036;-75
2022/01/18 12:10:38;;;;;;;7.63;4.45;;;;;;;;;;5035052;28;20033;-74
2022/01/18 12:13:05;;;;;;;8.77;4.70;;;;;;;;;;5017514;28;20060;-75
2022/01/18 12:15:33;;;;;;;8.82;4.82;;;;;;;;;;5000701;28;20049;-75
2022/01/18 12:18:15;;;;;;;7.05;4.93;;;;;;;;;;5035017;28;20069;-75
2022/01/18 12:20:43;;;;;;;7.67;4.13;;;;;;;;;;5033642;28;20033;-75
2022/01/18 12:23:26;;;;;;;9.18;4.53;;;;;;;;;;5033734;28;20095;-75
2022/01/18 12:32:29;;;;;;;6.65;4.20;;;;;;;;;;5018766;28;20029;-74
2022/01/18 12:34:31;;;;;;;6.68;4.20;;;;;;;;;;5024066;28;20034;-74
2022/01/18 12:37:28;;;;;;;8.35;4.30;;;;;;;;;;5033518;28;20368;-75
2022/01/18 12:45:10;;;;;;;8.00;4.75;;;;;;;;;;5012886;28;20042;-75
2022/01/18 12:47:40;;;;;;;8.32;4.55;;;;;;;;;;5016553;28;20034;-74
2022/01/18 12:50:08;;;;;;;8.73;4.93;;;;;;;;;;4983954;28;20034;-75
2022/01/18 12:52:53;;;;;;;8.90;4.55;;;;;;;;;;5016545;28;20044;-75
2022/01/18 12:55:42;;;;;;;7.30;4.13;;;;;;;;;;5016752;28;20547;-75
2022/01/18 12:58:17;;;;;;;9.05;5.18;;;;;;;;;;5018291;28;20084;-75
2022/01/18 13:00:47;;;;;;;6.22;3.97;;;;;;;;;;5016650;28;20553;-75
2022/01/18 13:03:35;;;;;;;9.68;4.80;;;;;;;;;;5032999;28;20036;-75
2022/01/18 13:06:22;;;;;;;6.68;4.00;;;;;;;;;;4984596;28;20033;-75
2022/01/18 13:08:48;;;;;;;6.97;4.07;;;;;;;;;;5032463;28;20046;-75
2022/01/18 13:11:18;;;;;;;9.52;4.40;;;;;;;;;;5032656;28;20035;-75
2022/01/18 13:13:52;;;;;;;6.70;4.28;;;;;;;;;;5016053;28;20029;-75
2022/01/18 13:26:48;;;;;;;5.95;4.25;;;;;;;;;;5015868;28;20036;-75
2022/01/18 13:29:24;;;;;;;6.30;3.70;;;;;;;;;;5016809;28;20041;-75
2022/01/18 13:32:30;;;;;;;7.53;4.30;;;;;;;;;;5016227;28;20120;-75
2022/01/18 13:34:57;;;;;;;7.20;3.97;;;;;;;;;;4986459;28;20065;-75
2022/01/18 13:37:30;;;;;;;7.95;3.88;;;;;;;;;;4999968;28;20462;-75
2022/01/18 13:40:07;;;;;;;7.40;4.35;;;;;;;;;;4999898;28;20499;-75
2022/01/18 13:42:40;;;;;;;9.35;4.35;;;;;;;;;;5015798;28;20041;-75
2022/01/18 13:45:06;;;;;;;7.25;4.63;;;;;;;;;;4999603;28;20029;-75
2022/01/18 13:47:39;;;;;;;9.57;5.60;;;;;;;;;;5049997;28;20372;-75
2022/01/18 13:50:04;;;;;;;9.93;5.30;;;;;;;;;;5035750;28;20033;-75
2022/01/18 13:52:31;;;;;;;7.70;4.88;;;;;;;;;;5035464;28;20391;-75
2022/01/18 13:54:56;;;;;;;10.45;5.45;;;;;;;;;;5035416;28;20476;-75
2022/01/18 13:57:22;;;;;;;10.95;5.47;;;;;;;;;;5034791;28;20094;-75
2022/01/18 13:59:49;;;;;;;9.20;4.78;;;;;;;;;;5018952;28;20106;-75
2022/01/18 14:02:22;;;;;;;9.55;4.55;;;;;;;;;;5018587;28;20037;-75
2022/01/18 14:05:05;;;;;;;7.15;4.72;;;;;;;;;;5036288;28;20182;-75
2022/01/18 14:07:31;;;;;;;8.52;4.30;;;;;;;;;;5051550;28;20029;-75
2022/01/18 14:09:59;;;;;;;8.65;5.28;;;;;;;;;;5052473;28;20068;-75
2022/01/18 14:12:29;;;;;;;8.25;4.63;;;;;;;;;;5035217;28;20086;-75
2022/01/18 14:14:54;;;;;;;5.95;3.83;;;;;;;;;;5018406;28;20045;-75
2022/01/18 14:17:21;;;;;;;7.93;4.78;;;;;;;;;;5034427;28;20041;-76
2022/01/18 14:19:47;;;;;;;6.43;4.00;;;;;;;;;;5035123;28;20032;-75
2022/01/18 14:22:16;;;;;;;8.15;5.05;;;;;;;;;;5018581;28;20037;-75
2022/01/18 14:24:46;;;;;;;9.98;4.70;;;;;;;;;;5034012;28;20043;-75
2022/01/18 14:27:13;;;;;;;9.18;4.25;;;;;;;;;;5034791;28;20037;-75
2022/01/18 14:29:42;;;;;;;14.48;12.55;;;;;;;;;;5018494;28;20031;-75
2022/01/18 14:32:14;;;;;;;11.20;8.30;;;;;;;;;;5026425;28;20030;-75
2022/01/18 14:34:41;;;;;;;12.70;9.32;;;;;;;;;;5005505;28;20476;-75
2022/01/18 14:37:07;;;;;;;11.80;8.45;;;;;;;;;;5014663;28;20044;-75
2022/01/18 14:39:33;;;;;;;11.43;8.27;;;;;;;;;;4997940;28;20025;-75
2022/01/18 14:42:03;;;;;;;11.60;7.75;;;;;;;;;;5014598;28;20498;-75
2022/01/18 14:47:25;;;;;;;9.88;7.63;;;;;;;;;;5001919;28;20092;-75
2022/01/18 14:50:17;;;;;;;12.23;7.65;;;;;;;;;;5002475;28;20038;-75
2022/01/18 14:52:45;;;;;;;9.07;6.97;;;;;;;;;;5010759;28;20045;-75
2022/01/18 14:55:11;;;;;;;10.70;6.70;;;;;;;;;;4998164;28;20032;-75
2022/01/18 14:57:37;;;;;;;9.73;6.72;;;;;;;;;;5014801;28;20426;-75
2022/01/18 15:00:05;;;;;;;9.23;6.60;;;;;;;;;;5014555;28;20051;-75
2022/01/18 15:02:30;;;;;;;10.80;6.60;;;;;;;;;;4998112;28;20033;-75
2022/01/18 15:04:56;;;;;;;10.82;6.53;;;;;;;;;;5014281;28;20531;-75
2022/01/18 15:07:21;;;;;;;8.88;7.35;;;;;;;;;;4997821;28;20103;-75
2022/01/18 15:09:47;;;;;;;8.57;5.97;;;;;;;;;;4997869;28;20025;-75
2022/01/18 15:12:12;;;;;;;8.93;6.40;;;;;;;;;;5013457;28;20041;-75
2022/01/18 15:14:37;;;;;;;10.85;7.38;;;;;;;;;;5013681;28;20376;-75
2022/01/18 15:17:03;;;;;;;7.72;5.70;;;;;;;;;;4997473;28;20391;-75
2022/01/18 15:19:30;;;;;;;9.75;5.88;;;;;;;;;;4997984;28;20040;-75
2022/01/18 15:21:56;;;;;;;9.02;5.15;;;;;;;;;;5014164;28;20493;-74
2022/01/18 15:24:22;;;;;;;8.75;6.22;;;;;;;;;;5013687;28;20071;-75
2022/01/18 15:26:49;;;;;;;8.27;5.72;;;;;;;;;;5014048;28;20071;-75
2022/01/18 15:29:15;;;;;;;8.07;5.82;;;;;;;;;;4998192;28;20026;-75
2022/01/18 15:31:42;;;;;;;7.82;5.32;;;;;;;;;;4997723;28;20120;-75
2022/01/18 15:34:07;;;;;;;9.70;5.65;;;;;;;;;;5010517;28;20029;-75
2022/01/18 15:36:33;;;;;;;8.43;5.22;;;;;;;;;;4962468;28;20503;-75
2022/01/18 15:38:58;;;;;;;7.80;4.63;;;;;;;;;;4993827;28;20462;-75
2022/01/18 15:41:24;;;;;;;8.30;5.25;;;;;;;;;;4994485;28;20044;-75
2022/01/18 15:43:49;;;;;;;8.30;4.78;;;;;;;;;;4994526;28;20376;-75
2022/01/18 15:46:14;;;;;;;7.32;4.75;;;;;;;;;;4994010;28;20387;-75
2022/01/18 15:48:40;;;;;;;6.93;4.63;;;;;;;;;;4977817;28;20042;-75
2022/01/18 15:51:05;;;;;;;6.22;4.50;;;;;;;;;;4977718;28;20092;-75
2022/01/18 15:53:31;;;;;;;10.00;5.22;;;;;;;;;;4994020;28;20361;-74
2022/01/18 15:55:56;;;;;;;7.88;4.60;;;;;;;;;;4994184;28;20034;-75
2022/01/18 15:58:22;;;;;;;6.25;4.55;;;;;;;;;;4977936;28;20384;-75
2022/01/18 16:00:48;;;;;;;7.55;4.50;;;;;;;;;;4978141;28;20052;-75
2022/01/18 16:03:17;;;;;;;9.55;6.85;;;;;;;;;;4994176;28;20026;-75
2022/01/18 16:05:43;;;;;;;10.02;6.32;;;;;;;;;;4994362;28;20041;-75
2022/01/18 16:08:08;;;;;;;11.15;6.65;;;;;;;;;;4994671;28;20369;-75
2022/01/18 16:10:34;;;;;;;9.32;5.95;;;;;;;;;;4993916;28;20030;-75
2022/01/18 16:12:59;;;;;;;8.68;5.80;;;;;;;;;;4977763;28;20026;-75
2022/01/18 16:15:25;;;;;;;12.00;5.90;;;;;;;;;;4993910;28;20079;-75